Time;durP1;ratioP1;P1;durP2;ratioP2;P2;SDS_P1;SDS_P2;PMS_P1;PMS_P2;Temp;Humidity;BMP_temperature;BMP_pressure;BME280_temperature;BME280_humidity;BME280_pressure;Samples;Min_cycle;Max_cycle;Signal;HPM_P1;HPM_P2
2023/08/23 00:00:16;;;;;;;0.68;0.30;;;18.80;99.90;;;;;;5065959;28;20183;-78
2023/08/23 00:02:43;;;;;;;0.77;0.52;;;18.80;99.90;;;;;;5056911;28;20344;-76
2023/08/23 00:05:10;;;;;;;0.57;0.30;;;18.80;99.90;;;;;;5064369;28;20048;-76
2023/08/23 00:07:37;;;;;;;0.60;0.50;;;18.80;99.90;;;;;;5057294;28;20044;-76
2023/08/23 00:10:04;;;;;;;0.50;0.40;;;18.80;99.90;;;;;;5055138;28;20048;-75
2023/08/23 00:12:31;;;;;;;0.70;0.40;;;18.80;99.90;;;;;;5054710;28;20393;-76
2023/08/23 00:14:58;;;;;;;0.75;0.50;;;18.80;99.90;;;;;;5039175;28;20401;-75
2023/08/23 00:17:25;;;;;;;0.60;0.30;;;18.80;99.90;;;;;;5058960;28;20048;-76
2023/08/23 00:19:52;;;;;;;1.02;0.40;;;18.70;99.90;;;;;;5040615;28;20163;-78
2023/08/23 00:22:19;;;;;;;0.63;0.30;;;18.70;99.90;;;;;;5060910;28;20084;-78
2023/08/23 00:24:46;;;;;;;0.63;0.43;;;18.60;99.90;;;;;;5044751;28;20049;-78
2023/08/23 00:27:13;;;;;;;0.28;0.25;;;18.60;99.90;;;;;;5038565;28;20133;-78
2023/08/23 00:29:40;;;;;;;0.60;0.40;;;18.60;99.90;;;;;;5042334;28;20119;-78
2023/08/23 00:32:07;;;;;;;0.40;0.40;;;18.50;99.90;;;;;;5045510;28;20059;-76
2023/08/23 00:34:33;;;;;;;0.85;0.55;;;18.40;99.90;;;;;;5062845;28;20049;-76
2023/08/23 00:37:00;;;;;;;0.88;0.50;;;18.40;99.90;;;;;;5062459;28;20054;-76
2023/08/23 00:39:27;;;;;;;0.60;0.40;;;18.40;99.90;;;;;;5069749;28;20045;-77
2023/08/23 00:41:54;;;;;;;0.35;0.30;;;18.30;99.90;;;;;;5054072;28;20127;-75
2023/08/23 00:44:21;;;;;;;0.32;0.30;;;18.20;99.90;;;;;;5059499;28;20036;-77
2023/08/23 00:46:47;;;;;;;0.30;0.30;;;18.20;99.90;;;;;;5040405;28;20119;-76
2023/08/23 00:49:14;;;;;;;0.88;0.50;;;18.20;99.90;;;;;;5059876;28;20623;-77
2023/08/23 00:51:41;;;;;;;0.52;0.40;;;18.20;99.90;;;;;;5043062;28;20056;-76
2023/08/23 00:54:09;;;;;;;0.35;0.35;;;18.20;99.90;;;;;;5028903;28;20072;-78
2023/08/23 00:56:37;;;;;;;0.50;0.40;;;18.20;99.90;;;;;;5056426;28;20384;-77
2023/08/23 00:59:03;;;;;;;0.63;0.50;;;18.20;99.90;;;;;;5042538;28;20106;-77
2023/08/23 01:01:30;;;;;;;0.38;0.38;;;18.20;99.90;;;;;;5056700;28;20036;-76
2023/08/23 01:03:57;;;;;;;0.63;0.32;;;18.20;99.90;;;;;;5056317;28;20135;-76
2023/08/23 01:06:48;;;;;;;0.75;0.50;;;18.20;99.90;;;;;;5057450;28;20045;-76
2023/08/23 01:09:35;;;;;;;0.55;0.38;;;18.20;99.90;;;;;;5058850;28;20572;-76
2023/08/23 01:12:04;;;;;;;0.60;0.40;;;18.20;99.90;;;;;;5040855;28;20513;-76
2023/08/23 01:14:39;;;;;;;0.25;0.20;;;18.20;99.90;;;;;;5058045;28;20154;-76
2023/08/23 01:17:06;;;;;;;0.38;0.35;;;18.20;99.90;;;;;;5058726;28;20053;-77
2023/08/23 01:19:38;;;;;;;0.95;0.50;;;18.20;99.90;;;;;;5058113;28;20052;-76
2023/08/23 01:22:05;;;;;;;0.40;0.20;;;18.20;99.90;;;;;;5058984;28;20076;-75
2023/08/23 01:24:32;;;;;;;0.30;0.20;;;18.20;99.90;;;;;;5043195;28;20044;-76
2023/08/23 01:26:59;;;;;;;0.30;0.30;;;18.10;1.00;;;;;;5025910;28;20060;-76
2023/08/23 01:29:26;;;;;;;0.40;0.40;;;18.10;1.00;;;;;;5043812;28;20470;-76
2023/08/23 01:31:54;;;;;;;0.40;0.20;;;18.20;1.00;;;;;;5058410;28;20044;-76
2023/08/23 01:34:28;;;;;;;0.20;0.10;;;18.10;1.00;;;;;;5067663;28;20068;-76
2023/08/23 01:36:55;;;;;;;0.20;0.20;;;18.10;1.00;;;;;;5061444;28;20094;-76
2023/08/23 01:39:22;;;;;;;0.57;0.30;;;18.10;1.00;;;;;;5032776;28;20090;-76
2023/08/23 01:41:50;;;;;;;0.20;0.20;;;18.00;1.00;;;;;;5032094;28;20081;-76
2023/08/23 01:44:16;;;;;;;0.20;0.20;;;18.00;1.00;;;;;;5044122;28;20045;-76
2023/08/23 01:46:43;;;;;;;0.38;0.20;;;18.00;1.00;;;;;;5062395;28;20080;-77
2023/08/23 01:49:10;;;;;;;0.15;0.15;;;18.00;1.00;;;;;;5065927;28;20118;-77
2023/08/23 01:51:37;;;;;;;0.20;0.20;;;17.90;1.00;;;;;;5065185;28;20066;-77
2023/08/23 01:54:04;;;;;;;0.35;0.30;;;17.90;27.40;;;;;;5065279;28;20068;-77
2023/08/23 01:56:30;;;;;;;0.20;0.20;;;17.80;99.90;;;;;;5062943;28;20044;-77
2023/08/23 01:58:57;;;;;;;0.10;0.10;;;17.80;99.90;;;;;;5065771;28;20055;-76
2023/08/23 02:01:24;;;;;;;0.35;0.30;;;17.80;99.90;;;;;;5049588;28;20139;-76
2023/08/23 02:03:51;;;;;;;0.45;0.20;;;17.70;99.90;;;;;;5072834;28;20534;-76
2023/08/23 02:06:18;;;;;;;0.65;0.40;;;17.60;99.90;;;;;;5073445;28;20048;-77
2023/08/23 02:08:45;;;;;;;0.63;0.30;;;17.60;1.00;;;;;;5045031;28;20091;-76
2023/08/23 02:11:12;;;;;;;0.70;0.40;;;17.60;99.90;;;;;;5058717;28;20049;-77
2023/08/23 02:13:38;;;;;;;0.40;0.30;;;17.50;99.90;;;;;;5091633;28;20040;-76
2023/08/23 02:16:05;;;;;;;0.98;0.38;;;17.60;99.90;;;;;;5064046;28;20053;-77
2023/08/23 02:18:32;;;;;;;0.63;0.47;;;17.50;1.00;;;;;;5047669;28;20060;-77
2023/08/23 02:20:59;;;;;;;0.35;0.20;;;17.40;1.00;;;;;;5065445;28;20125;-76
2023/08/23 02:23:26;;;;;;;1.35;0.60;;;17.40;1.00;;;;;;5063951;28;20048;-77
2023/08/23 02:25:52;;;;;;;1.33;0.77;;;17.30;99.90;;;;;;5060055;28;20051;-78
2023/08/23 02:28:19;;;;;;;1.27;0.60;;;17.20;1.00;;;;;;5063577;28;20057;-77
2023/08/23 02:30:46;;;;;;;1.50;0.60;;;17.20;1.00;;;;;;5063880;28;20044;-78
2023/08/23 02:33:13;;;;;;;0.40;0.40;;;17.10;99.90;;;;;;5063937;28;20060;-77
2023/08/23 02:35:43;;;;;;;1.33;0.68;;;17.10;99.90;;;;;;5031155;28;20452;-77
2023/08/23 02:38:10;;;;;;;0.60;0.47;;;17.00;99.90;;;;;;5048311;28;20052;-76
2023/08/23 02:40:41;;;;;;;1.02;0.60;;;16.90;99.90;;;;;;5047993;28;20106;-78
2023/08/23 02:43:08;;;;;;;1.23;0.60;;;16.90;99.90;;;;;;5045712;28;20086;-77
2023/08/23 02:45:39;;;;;;;0.52;0.43;;;16.90;99.90;;;;;;5047577;28;20044;-78
2023/08/23 02:48:09;;;;;;;0.55;0.40;;;16.90;1.00;;;;;;5062325;28;20048;-78
2023/08/23 02:50:37;;;;;;;0.60;0.40;;;16.90;1.00;;;;;;5062592;28;20163;-78
2023/08/23 02:53:06;;;;;;;0.88;0.50;;;16.90;1.00;;;;;;5042847;28;20072;-78
2023/08/23 02:55:36;;;;;;;0.60;0.47;;;16.90;1.00;;;;;;5062869;28;20191;-78
2023/08/23 02:58:03;;;;;;;0.73;0.50;;;16.90;25.10;;;;;;5045140;28;20515;-78
2023/08/23 03:00:30;;;;;;;0.70;0.50;;;16.90;59.60;;;;;;5062547;28;20048;-78
2023/08/23 03:02:57;;;;;;;1.38;0.60;;;16.90;37.50;;;;;;5058774;28;20048;-76
2023/08/23 03:05:24;;;;;;;1.20;0.52;;;16.80;76.30;;;;;;5046279;28;20059;-77
2023/08/23 03:07:51;;;;;;;0.93;0.47;;;16.80;99.90;;;;;;5062877;28;20036;-77
2023/08/23 03:10:18;;;;;;;0.93;0.50;;;16.80;99.90;;;;;;5060857;28;20045;-76
2023/08/23 03:12:44;;;;;;;0.93;0.52;;;16.80;99.90;;;;;;5062014;28;20041;-76
2023/08/23 03:15:11;;;;;;;0.80;0.50;;;16.80;99.90;;;;;;5061754;28;20056;-76
2023/08/23 03:17:38;;;;;;;0.85;0.50;;;16.80;99.90;;;;;;5062653;28;20052;-77
2023/08/23 03:20:05;;;;;;;0.63;0.50;;;16.90;99.90;;;;;;5046693;28;20123;-76
2023/08/23 03:22:32;;;;;;;1.10;0.60;;;16.80;99.90;;;;;;5061528;28;20056;-76
2023/08/23 03:24:59;;;;;;;0.82;0.50;;;16.80;99.90;;;;;;5063120;28;20528;-76
2023/08/23 03:27:26;;;;;;;0.77;0.52;;;16.90;99.90;;;;;;5059007;28;20420;-77
2023/08/23 03:29:54;;;;;;;1.02;0.57;;;16.90;99.90;;;;;;5047194;28;20063;-76
2023/08/23 03:32:20;;;;;;;0.55;0.40;;;16.90;99.90;;;;;;5045066;28;20057;-76
2023/08/23 03:34:47;;;;;;;0.50;0.40;;;16.90;99.90;;;;;;5062876;28;20040;-76
2023/08/23 03:37:14;;;;;;;0.30;0.30;;;16.90;99.90;;;;;;5059926;28;20072;-76
2023/08/23 03:39:41;;;;;;;0.50;0.40;;;16.90;99.90;;;;;;5064142;28;20041;-76
2023/08/23 03:42:08;;;;;;;0.65;0.40;;;16.90;99.90;;;;;;5059485;28;20125;-76
2023/08/23 03:44:35;;;;;;;1.15;0.50;;;16.90;99.90;;;;;;5062564;28;20114;-76
2023/08/23 03:47:01;;;;;;;0.85;0.50;;;16.90;1.00;;;;;;5029390;28;20468;-77
2023/08/23 03:49:28;;;;;;;0.20;0.20;;;16.90;99.90;;;;;;5047311;28;20044;-76
2023/08/23 03:51:55;;;;;;;1.15;0.70;;;16.90;1.00;;;;;;5045558;28;20079;-77
2023/08/23 03:54:22;;;;;;;0.98;0.40;;;16.90;1.00;;;;;;5062788;28;20106;-76
2023/08/23 03:56:49;;;;;;;0.95;0.35;;;16.80;1.00;;;;;;5046892;28;20044;-76
2023/08/23 03:59:16;;;;;;;1.33;0.50;;;16.90;1.00;;;;;;5034232;28;20573;-76
2023/08/23 04:01:43;;;;;;;0.38;0.20;;;16.90;1.00;;;;;;5066406;28;20110;-76
2023/08/23 04:04:10;;;;;;;0.70;0.35;;;16.90;1.00;;;;;;5066034;28;20551;-76
2023/08/23 04:06:38;;;;;;;0.85;0.50;;;17.00;1.00;;;;;;5065191;28;20041;-77
2023/08/23 04:09:05;;;;;;;0.93;0.40;;;17.00;1.00;;;;;;5060029;28;20153;-76
2023/08/23 04:11:31;;;;;;;0.38;0.22;;;17.00;1.00;;;;;;5075381;28;20106;-77
2023/08/23 04:13:58;;;;;;;0.95;0.38;;;17.00;1.00;;;;;;5066026;28;20052;-76
2023/08/23 04:16:25;;;;;;;0.40;0.32;;;17.00;1.00;;;;;;5064416;28;20543;-76
2023/08/23 04:18:53;;;;;;;0.88;0.43;;;16.90;8.00;;;;;;5065667;28;20139;-76
2023/08/23 04:21:19;;;;;;;0.40;0.40;;;17.00;60.10;;;;;;5061723;28;20381;-76
2023/08/23 04:23:46;;;;;;;0.45;0.40;;;17.00;72.00;;;;;;5066273;28;20446;-76
2023/08/23 04:26:13;;;;;;;0.50;0.38;;;17.00;97.60;;;;;;5046895;28;20060;-77
2023/08/23 04:28:40;;;;;;;0.40;0.40;;;17.10;86.40;;;;;;5065219;28;20090;-76
2023/08/23 04:31:07;;;;;;;1.10;0.50;;;17.10;81.10;;;;;;5060959;28;20040;-76
2023/08/23 04:33:37;;;;;;;0.40;0.40;;;17.10;99.90;;;;;;5066942;28;20044;-75
2023/08/23 04:36:05;;;;;;;0.30;0.30;;;17.10;99.20;;;;;;5065173;28;20102;-77
2023/08/23 04:38:31;;;;;;;0.73;0.30;;;17.10;99.90;;;;;;5047755;28;20142;-77
2023/08/23 04:41:02;;;;;;;0.82;0.57;;;17.10;99.90;;;;;;5033696;28;20094;-77
2023/08/23 04:43:29;;;;;;;0.40;0.30;;;17.10;99.90;;;;;;5065228;28;20110;-77
2023/08/23 04:45:56;;;;;;;0.32;0.32;;;17.10;99.90;;;;;;5063811;28;20052;-77
2023/08/23 04:48:23;;;;;;;0.60;0.47;;;17.10;99.90;;;;;;5046070;28;20044;-77
2023/08/23 04:50:51;;;;;;;1.05;0.75;;;17.10;99.90;;;;;;5046961;28;20057;-77
2023/08/23 04:53:18;;;;;;;0.77;0.57;;;17.10;99.90;;;;;;5048308;28;20044;-77
2023/08/23 04:55:45;;;;;;;0.45;0.40;;;17.10;99.90;;;;;;5029654;28;20383;-76
2023/08/23 04:58:11;;;;;;;0.70;0.30;;;17.20;99.90;;;;;;5051800;28;20048;-77
2023/08/23 05:00:38;;;;;;;1.55;0.60;;;17.20;99.90;;;;;;5070209;28;20658;-77
2023/08/23 05:03:06;;;;;;;0.80;0.65;;;17.20;99.90;;;;;;5047366;28;20056;-77
2023/08/23 05:05:34;;;;;;;1.60;0.70;;;17.20;99.90;;;;;;5050045;28;20671;-78
2023/08/23 05:08:02;;;;;;;1.05;0.52;;;17.10;99.90;;;;;;5032253;28;20145;-79
2023/08/23 05:10:29;;;;;;;0.60;0.50;;;17.10;99.90;;;;;;5019182;28;20060;-78
2023/08/23 05:12:57;;;;;;;0.77;0.50;;;17.00;99.90;;;;;;5052010;28;20053;-77
2023/08/23 05:15:24;;;;;;;1.08;0.65;;;17.00;99.90;;;;;;5057663;28;20472;-77
2023/08/23 05:17:52;;;;;;;0.80;0.50;;;17.00;99.90;;;;;;5056706;28;20121;-77
2023/08/23 05:20:18;;;;;;;1.10;0.45;;;17.00;99.90;;;;;;5046138;28;20128;-78
2023/08/23 05:22:46;;;;;;;1.20;0.93;;;16.90;99.90;;;;;;5048715;28;20049;-77
2023/08/23 05:25:17;;;;;;;0.50;0.50;;;16.90;99.90;;;;;;5051688;28;20127;-78
2023/08/23 05:27:44;;;;;;;1.35;1.00;;;16.80;99.90;;;;;;5052106;28;20063;-79
2023/08/23 05:30:12;;;;;;;0.90;0.68;;;16.80;99.90;;;;;;5055448;28;20500;-79
2023/08/23 05:32:39;;;;;;;0.77;0.60;;;16.80;1.00;;;;;;5054719;28;20052;-79
2023/08/23 05:35:07;;;;;;;0.90;0.70;;;16.80;1.00;;;;;;5056888;28;20132;-79
2023/08/23 05:37:34;;;;;;;0.90;0.77;;;16.80;1.00;;;;;;5054027;28;20548;-79
2023/08/23 05:40:01;;;;;;;0.43;0.40;;;16.80;1.00;;;;;;5056249;28;20109;-81
2023/08/23 05:42:27;;;;;;;0.80;0.50;;;16.80;1.00;;;;;;5054865;28;20391;-80
2023/08/23 05:44:54;;;;;;;0.77;0.57;;;16.80;1.00;;;;;;5054193;28;20053;-80
2023/08/23 05:47:21;;;;;;;0.50;0.50;;;16.80;47.90;;;;;;5056212;28;20139;-80
2023/08/23 05:49:48;;;;;;;0.88;0.60;;;16.80;63.50;;;;;;5043853;28;20284;-80
2023/08/23 05:52:15;;;;;;;0.52;0.45;;;16.90;80.00;;;;;;5094410;28;20432;-81
2023/08/23 05:54:41;;;;;;;0.70;0.43;;;16.90;93.70;;;;;;5060880;28;20105;-76
2023/08/23 05:57:08;;;;;;;0.60;0.38;;;17.00;85.80;;;;;;5050120;28;20876;-76
2023/08/23 05:59:35;;;;;;;1.10;0.70;;;17.10;61.30;;;;;;5036594;28;20612;-75
2023/08/23 06:02:02;;;;;;;0.88;0.57;;;17.30;24.10;;;;;;5035358;28;20052;-75
2023/08/23 06:04:29;;;;;;;1.40;0.60;;;17.40;1.00;;;;;;5034667;28;20115;-75
2023/08/23 06:06:56;;;;;;;1.10;0.70;;;17.50;1.00;;;;;;5084071;28;20048;-75
2023/08/23 06:09:23;;;;;;;1.05;0.60;;;17.60;1.00;;;;;;5051796;28;20032;-76
2023/08/23 06:11:50;;;;;;;1.00;0.50;;;17.60;1.00;;;;;;5053751;28;20103;-76
2023/08/23 06:14:22;;;;;;;0.98;0.50;;;17.70;1.00;;;;;;5051044;28;20056;-76
2023/08/23 06:16:49;;;;;;;1.40;0.70;;;17.80;99.90;;;;;;5048614;28;20046;-77
2023/08/23 06:19:18;;;;;;;0.65;0.60;;;17.80;99.90;;;;;;5065090;28;20052;-76
2023/08/23 06:21:45;;;;;;;1.10;0.60;;;17.90;99.90;;;;;;5029850;28;20049;-76
2023/08/23 06:24:12;;;;;;;0.65;0.38;;;17.90;99.90;;;;;;5049751;28;20109;-76
2023/08/23 06:26:38;;;;;;;0.60;0.50;;;18.00;99.90;;;;;;5057780;28;20640;-76
2023/08/23 06:29:05;;;;;;;0.63;0.55;;;18.00;99.90;;;;;;5047430;28;20949;-76
2023/08/23 06:31:32;;;;;;;1.15;0.68;;;18.00;99.90;;;;;;5034142;28;20099;-76
2023/08/23 06:33:59;;;;;;;1.50;0.70;;;18.00;99.90;;;;;;5056807;28;20166;-76
2023/08/23 06:36:26;;;;;;;0.47;0.47;;;18.10;99.90;;;;;;5041171;28;20615;-76
2023/08/23 06:38:53;;;;;;;0.93;0.50;;;18.10;99.90;;;;;;5041521;28;20099;-76
2023/08/23 06:41:19;;;;;;;0.82;0.65;;;18.20;99.90;;;;;;5056479;28;20059;-76
2023/08/23 06:43:47;;;;;;;1.05;0.60;;;18.20;99.90;;;;;;5024859;28;20084;-76
2023/08/23 06:46:14;;;;;;;2.25;0.80;;;18.20;99.90;;;;;;5041506;28;20101;-76
2023/08/23 06:48:41;;;;;;;0.90;0.50;;;18.20;99.90;;;;;;5057662;28;20040;-76
2023/08/23 06:51:08;;;;;;;0.70;0.35;;;18.30;1.00;;;;;;5040864;28;20621;-76
2023/08/23 06:53:35;;;;;;;1.17;0.70;;;18.30;99.90;;;;;;5057566;28;20040;-76
2023/08/23 06:56:03;;;;;;;0.90;0.70;;;18.40;99.90;;;;;;5057495;28;20056;-77
2023/08/23 06:58:30;;;;;;;0.82;0.40;;;18.40;99.90;;;;;;5056109;28;20044;-76
2023/08/23 07:00:57;;;;;;;1.05;0.77;;;18.40;99.90;;;;;;5052557;28;20486;-76
2023/08/23 07:03:24;;;;;;;1.40;0.70;;;18.50;99.90;;;;;;5083976;28;20049;-76
2023/08/23 07:05:51;;;;;;;0.70;0.57;;;18.50;99.90;;;;;;5054132;28;20056;-76
2023/08/23 07:08:18;;;;;;;0.68;0.60;;;18.50;99.90;;;;;;5051432;28;20153;-76
2023/08/23 07:10:45;;;;;;;0.65;0.28;;;18.60;99.90;;;;;;5052547;28;20114;-76
2023/08/23 07:13:12;;;;;;;0.50;0.50;;;18.70;99.90;;;;;;5069033;28;20199;-74
2023/08/23 07:15:40;;;;;;;0.30;0.30;;;18.70;6.20;;;;;;5059267;28;20063;-75
2023/08/23 07:18:08;;;;;;;0.77;0.60;;;18.80;1.00;;;;;;5055693;28;20063;-75
2023/08/23 07:20:37;;;;;;;1.25;0.80;;;18.90;1.00;;;;;;5044246;28;20491;-74
2023/08/23 07:23:04;;;;;;;1.05;0.65;;;18.90;99.90;;;;;;5057554;28;20044;-75
2023/08/23 07:25:31;;;;;;;0.32;0.32;;;18.90;99.90;;;;;;5053577;28;20114;-75
2023/08/23 07:28:00;;;;;;;0.43;0.40;;;19.00;99.90;;;;;;5048596;28;20243;-75
2023/08/23 07:30:28;;;;;;;0.43;0.30;;;18.90;99.90;;;;;;5050315;28;20049;-75
2023/08/23 07:32:54;;;;;;;0.50;0.40;;;18.90;99.90;;;;;;5052372;28;20064;-75
2023/08/23 07:35:21;;;;;;;0.57;0.40;;;18.90;99.90;;;;;;5083454;28;20517;-75
2023/08/23 07:37:48;;;;;;;0.50;0.47;;;18.90;99.90;;;;;;5055792;28;20128;-74
2023/08/23 07:40:16;;;;;;;0.70;0.40;;;19.00;99.90;;;;;;5052554;28;20048;-75
2023/08/23 07:42:43;;;;;;;0.30;0.30;;;19.10;99.90;;;;;;5049719;28;20056;-74
2023/08/23 07:45:10;;;;;;;0.70;0.55;;;19.10;99.90;;;;;;5036085;28;20489;-75
2023/08/23 07:47:37;;;;;;;0.30;0.30;;;19.10;99.90;;;;;;5047271;28;20110;-75
2023/08/23 07:50:05;;;;;;;0.98;0.50;;;19.20;99.90;;;;;;5055300;28;20060;-75
2023/08/23 07:52:32;;;;;;;0.85;0.60;;;19.20;99.90;;;;;;5037451;28;20048;-75
2023/08/23 07:54:59;;;;;;;0.57;0.50;;;19.20;99.90;;;;;;5043458;28;21335;-75
2023/08/23 07:57:25;;;;;;;0.70;0.50;;;19.30;80.50;;;;;;5077606;27;20048;-75
2023/08/23 07:59:55;;;;;;;1.30;0.50;;;19.40;1.00;;;;;;5056283;28;20136;-75
2023/08/23 08:02:22;;;;;;;0.63;0.47;;;19.40;99.90;;;;;;5068260;28;20151;-76
2023/08/23 08:04:49;;;;;;;0.40;0.40;;;19.50;99.90;;;;;;5023141;28;20918;-76
2023/08/23 08:07:16;;;;;;;0.55;0.40;;;19.50;1.00;;;;;;5059692;28;20817;-76
2023/08/23 08:10:03;;;;;;;0.85;0.35;;;19.50;1.00;;;;;;5053435;28;20051;-75
2023/08/23 08:12:30;;;;;;;0.85;0.50;;;19.50;99.90;;;;;;5051501;28;20094;-76
2023/08/23 08:14:59;;;;;;;0.90;0.50;;;19.50;99.90;;;;;;5055289;28;20049;-75
2023/08/23 08:17:26;;;;;;;0.50;0.40;;;19.60;99.90;;;;;;5056418;28;20075;-77
2023/08/23 08:19:53;;;;;;;0.63;0.40;;;19.60;99.90;;;;;;5060024;28;20044;-76
2023/08/23 08:22:20;;;;;;;0.70;0.30;;;19.70;1.00;;;;;;5036435;28;20063;-76
2023/08/23 08:24:47;;;;;;;1.13;0.60;;;19.70;99.90;;;;;;5069488;28;20475;-75
2023/08/23 08:27:14;;;;;;;0.30;0.30;;;19.70;99.90;;;;;;5063221;28;20048;-75
2023/08/23 08:29:41;;;;;;;0.85;0.40;;;19.80;99.90;;;;;;5065513;28;20102;-75
2023/08/23 08:32:07;;;;;;;0.63;0.40;;;19.90;99.90;;;;;;5061690;28;20040;-82
2023/08/23 08:34:34;;;;;;;1.50;0.60;;;19.90;1.00;;;;;;5059412;28;20048;-89
2023/08/23 08:37:01;;;;;;;0.38;0.30;;;20.00;1.00;;;;;;5076466;28;20068;-87
2023/08/23 08:39:28;;;;;;;0.63;0.43;;;20.10;99.90;;;;;;5053186;28;20079;-87
2023/08/23 08:41:55;;;;;;;0.57;0.35;;;20.20;99.30;;;;;;5051979;28;20240;-81
2023/08/23 08:44:23;;;;;;;0.57;0.40;;;20.20;99.90;;;;;;5053578;28;20049;-80
2023/08/23 08:46:50;;;;;;;0.80;0.47;;;20.30;91.10;;;;;;5056096;28;20059;-83
2023/08/23 08:49:16;;;;;;;0.45;0.40;;;20.30;99.90;;;;;;5070765;28;20052;-80
2023/08/23 08:51:48;;;;;;;0.35;0.30;;;20.50;26.00;;;;;;5056768;28;20080;-80
2023/08/23 08:54:15;;;;;;;0.65;0.40;;;20.60;15.30;;;;;;5071040;28;20535;-80
2023/08/23 08:56:44;;;;;;;1.02;0.40;;;20.60;1.90;;;;;;5053020;28;20053;-80
2023/08/23 08:59:10;;;;;;;0.57;0.32;;;20.70;1.00;;;;;;5057578;28;20098;-80
2023/08/23 09:01:37;;;;;;;0.80;0.40;;;20.70;1.00;;;;;;5056453;28;20140;-80
2023/08/23 09:04:04;;;;;;;1.05;0.30;;;20.80;8.10;;;;;;5056576;28;20609;-80
2023/08/23 09:06:32;;;;;;;0.60;0.30;;;20.90;1.20;;;;;;5059654;28;20076;-82
2023/08/23 09:08:59;;;;;;;0.20;0.20;;;21.00;2.90;;;;;;5056747;28;20537;-80
2023/08/23 09:11:25;;;;;;;0.40;0.30;;;21.00;1.00;;;;;;5075072;28;20154;-80
2023/08/23 09:13:52;;;;;;;0.30;0.30;;;21.10;1.00;;;;;;5046115;28;20052;-81
2023/08/23 09:16:19;;;;;;;0.73;0.43;;;21.20;1.00;;;;;;5053673;28;20037;-80
2023/08/23 09:18:46;;;;;;;0.75;0.40;;;21.30;1.00;;;;;;5057274;28;20052;-80
2023/08/23 09:21:13;;;;;;;0.57;0.40;;;21.40;1.00;;;;;;5057459;28;20151;-79
2023/08/23 09:23:40;;;;;;;0.70;0.60;;;21.40;1.00;;;;;;5072310;28;20060;-80
2023/08/23 09:26:07;;;;;;;0.70;0.50;;;21.50;1.00;;;;;;5053935;28;20094;-79
2023/08/23 09:28:34;;;;;;;0.73;0.60;;;21.50;1.00;;;;;;5069628;28;20147;-80
2023/08/23 09:31:00;;;;;;;0.52;0.40;;;21.50;1.00;;;;;;5044005;28;20088;-81
2023/08/23 09:33:28;;;;;;;0.38;0.38;;;21.60;1.00;;;;;;5075269;28;20142;-81
2023/08/23 09:35:58;;;;;;;0.45;0.40;;;21.60;1.00;;;;;;5059027;28;20053;-81
2023/08/23 09:38:25;;;;;;;1.70;0.68;;;21.70;1.00;;;;;;5051836;28;20040;-80
2023/08/23 09:40:52;;;;;;;0.85;0.45;;;21.80;1.00;;;;;;5056084;28;20041;-80
2023/08/23 09:43:19;;;;;;;0.82;0.50;;;21.90;1.00;;;;;;5041001;28;20072;-83
2023/08/23 09:45:46;;;;;;;0.40;0.40;;;21.90;1.00;;;;;;5044630;28;20102;-85
2023/08/23 09:48:14;;;;;;;0.32;0.30;;;22.00;1.00;;;;;;5062088;28;20060;-83
2023/08/23 09:50:46;;;;;;;0.75;0.60;;;22.10;1.00;;;;;;5024743;28;20040;-83
2023/08/23 09:53:19;;;;;;;0.75;0.32;;;22.20;1.00;;;;;;5037766;28;20135;-83
2023/08/23 09:55:46;;;;;;;0.75;0.40;;;22.30;1.00;;;;;;5055631;28;20049;-83
2023/08/23 09:58:12;;;;;;;0.60;0.50;;;22.30;1.00;;;;;;5070755;28;20149;-83
2023/08/23 10:00:39;;;;;;;0.57;0.50;;;22.30;1.00;;;;;;5072410;28;20137;-82
2023/08/23 10:03:06;;;;;;;0.95;0.50;;;22.40;1.00;;;;;;5040429;28;20063;-82
2023/08/23 10:05:34;;;;;;;0.68;0.52;;;22.40;1.00;;;;;;5074328;28;20041;-85
2023/08/23 10:08:01;;;;;;;1.67;0.70;;;22.40;1.00;;;;;;5061274;28;20037;-81
2023/08/23 10:10:31;;;;;;;1.08;0.57;;;22.40;1.00;;;;;;5073498;28;20056;-85
2023/08/23 10:13:04;;;;;;;0.63;0.43;;;22.60;1.00;;;;;;5027166;28;20044;-83
2023/08/23 10:15:40;;;;;;;;;;;22.60;1.00;;;;;;5075762;28;20067;-85
2023/08/23 10:18:09;;;;;;;1.10;0.75;;;22.80;1.00;;;;;;5074215;28;19978;-85
2023/08/23 10:20:36;;;;;;;0.50;0.35;;;22.90;1.00;;;;;;5063163;28;20160;-85
2023/08/23 10:23:12;;;;;;;0.40;0.30;;;23.00;1.00;;;;;;5060630;28;20330;-84
2023/08/23 10:25:43;;;;;;;0.55;0.47;;;23.00;1.00;;;;;;5051437;28;20126;-84
2023/08/23 10:28:18;;;;;;;0.57;0.43;;;23.30;1.00;;;;;;5045402;28;20080;-85
2023/08/23 10:30:48;;;;;;;0.63;0.40;;;23.30;1.00;;;;;;5025505;28;20072;-85
2023/08/23 10:33:16;;;;;;;1.15;0.70;;;23.40;1.00;;;;;;5023703;28;20068;-85
2023/08/23 10:35:44;;;;;;;0.75;0.47;;;23.40;1.00;;;;;;5075460;28;20436;-84
2023/08/23 10:38:11;;;;;;;0.43;0.38;;;23.40;1.00;;;;;;5075217;28;20052;-86
2023/08/23 10:40:39;;;;;;;1.23;0.43;;;23.60;1.00;;;;;;5050845;28;20106;-84
2023/08/23 10:43:24;;;;;;;0.50;0.40;;;23.60;1.00;;;;;;5069661;28;20129;-84
2023/08/23 10:45:56;;;;;;;1.15;0.50;;;23.60;1.00;;;;;;5073969;28;20436;-84
2023/08/23 10:48:23;;;;;;;1.02;0.35;;;23.70;1.00;;;;;;5041705;28;20048;-84
2023/08/23 10:50:51;;;;;;;1.65;0.60;;;23.80;1.00;;;;;;5041791;28;20122;-83
2023/08/23 10:53:18;;;;;;;0.32;0.28;;;23.80;1.00;;;;;;5040509;28;20180;-83
2023/08/23 10:55:45;;;;;;;0.40;0.35;;;24.00;1.00;;;;;;5036559;28;20048;-86
2023/08/23 10:58:15;;;;;;;0.95;0.70;;;24.00;1.00;;;;;;5051086;28;20052;-84
2023/08/23 11:00:42;;;;;;;0.70;0.40;;;24.10;1.00;;;;;;5040582;28;20075;-82
2023/08/23 11:03:13;;;;;;;0.77;0.52;;;24.20;1.00;;;;;;5067876;28;20068;-83
2023/08/23 11:05:40;;;;;;;0.75;0.40;;;24.40;1.00;;;;;;5039776;28;20566;-83
2023/08/23 11:08:08;;;;;;;0.57;0.32;;;24.60;1.00;;;;;;5040282;28;20044;-81
2023/08/23 11:10:36;;;;;;;0.80;0.60;;;24.70;1.00;;;;;;5024026;28;20071;-82
2023/08/23 11:13:03;;;;;;;0.68;0.40;;;24.90;1.00;;;;;;5047535;28;20052;-82
2023/08/23 11:15:30;;;;;;;0.40;0.40;;;25.00;1.00;;;;;;5035220;28;20044;-81
2023/08/23 11:17:57;;;;;;;0.43;0.38;;;25.10;1.00;;;;;;5029877;28;20130;-83
2023/08/23 11:20:24;;;;;;;0.30;0.30;;;25.10;1.00;;;;;;5026250;28;20173;-83
2023/08/23 11:22:51;;;;;;;1.13;0.60;;;25.20;1.00;;;;;;5052311;28;20051;-87
2023/08/23 11:25:18;;;;;;;0.55;0.40;;;25.30;1.00;;;;;;5036642;28;20048;-83
2023/08/23 11:27:45;;;;;;;0.50;0.50;;;25.50;1.00;;;;;;5060649;28;20640;-83
2023/08/23 11:30:12;;;;;;;1.00;0.50;;;25.60;1.00;;;;;;5051963;28;20951;-82
2023/08/23 11:32:39;;;;;;;1.08;0.68;;;25.70;1.00;;;;;;5053737;28;20052;-84
2023/08/23 11:35:06;;;;;;;0.57;0.40;;;25.80;1.00;;;;;;5053467;28;20133;-83
2023/08/23 11:37:35;;;;;;;0.45;0.30;;;26.00;1.00;;;;;;5051792;28;20067;-84
2023/08/23 11:40:07;;;;;;;0.43;0.43;;;26.20;1.00;;;;;;5033017;28;20140;-83
2023/08/23 11:42:36;;;;;;;;;;;26.50;1.00;;;;;;5059020;28;20048;-83
2023/08/23 11:45:07;;;;;;;0.22;0.22;;;26.70;1.00;;;;;;5036255;28;19924;-84
2023/08/23 11:47:35;;;;;;;0.30;0.30;;;27.00;1.00;;;;;;5034971;28;20124;-85
2023/08/23 11:50:05;;;;;;;0.70;0.40;;;27.30;1.00;;;;;;5050503;28;20061;-84
2023/08/23 11:52:32;;;;;;;0.60;0.50;;;27.50;1.00;;;;;;5052488;28;20990;-84
2023/08/23 11:55:02;;;;;;;0.63;0.60;;;27.50;1.00;;;;;;5034596;28;20053;-84
2023/08/23 11:57:33;;;;;;;0.90;0.73;;;27.60;1.00;;;;;;5047896;28;20206;-83
2023/08/23 12:00:01;;;;;;;0.88;0.60;;;27.50;1.00;;;;;;5022549;28;20083;-84
2023/08/23 12:02:28;;;;;;;0.30;0.30;;;27.80;1.00;;;;;;5047886;28;20053;-84
2023/08/23 12:04:56;;;;;;;0.52;0.40;;;28.10;1.00;;;;;;5054777;28;20587;-85
2023/08/23 12:07:23;;;;;;;1.33;0.80;;;28.30;1.00;;;;;;5035387;28;20108;-84
2023/08/23 12:09:50;;;;;;;0.30;0.30;;;28.20;1.00;;;;;;5065375;28;20089;-83
2023/08/23 12:12:16;;;;;;;0.52;0.40;;;28.50;1.00;;;;;;5040131;28;20808;-85
2023/08/23 12:14:43;;;;;;;0.88;0.63;;;28.90;1.00;;;;;;5036737;28;20373;-85
2023/08/23 12:17:11;;;;;;;0.43;0.43;;;29.10;1.00;;;;;;5052480;28;20436;-85
2023/08/23 12:19:38;;;;;;;0.30;0.30;;;29.40;1.00;;;;;;5055507;28;20348;-84
2023/08/23 12:22:09;;;;;;;0.45;0.43;;;29.40;1.00;;;;;;5054709;28;20051;-84
2023/08/23 12:24:36;;;;;;;0.50;0.50;;;29.50;1.00;;;;;;5071374;28;20055;-85
2023/08/23 12:27:04;;;;;;;0.70;0.60;;;29.50;1.00;;;;;;5055549;28;20462;-85
2023/08/23 12:29:31;;;;;;;0.85;0.63;;;29.40;1.00;;;;;;5038864;28;20051;-84
2023/08/23 12:31:58;;;;;;;0.60;0.60;;;29.50;1.00;;;;;;5073120;28;20052;-86
2023/08/23 12:34:25;;;;;;;1.80;0.60;;;29.50;1.00;;;;;;5046519;28;20113;-86
2023/08/23 12:36:52;;;;;;;0.50;0.45;;;29.90;1.00;;;;;;5057040;28;20104;-82
2023/08/23 12:39:19;;;;;;;0.60;0.50;;;30.40;1.00;;;;;;5060483;28;20122;-83
2023/08/23 12:41:47;;;;;;;0.35;0.35;;;30.60;1.00;;;;;;5054139;28;20048;-86
2023/08/23 12:44:14;;;;;;;0.40;0.40;;;31.00;1.00;;;;;;5041040;28;20051;-83
2023/08/23 12:46:41;;;;;;;0.68;0.50;;;31.20;1.00;;;;;;5024434;28;20048;-80
2023/08/23 12:49:12;;;;;;;0.40;0.40;;;31.20;1.00;;;;;;5059263;28;20606;-81
2023/08/23 12:51:40;;;;;;;0.82;0.60;;;31.30;1.00;;;;;;5075174;28;20048;-81
2023/08/23 12:54:07;;;;;;;0.30;0.30;;;31.50;1.00;;;;;;5063192;28;20060;-82